sensor_id;sensor_type;location;lat;lon;timestamp;P1;durP1;ratioP1;P2;durP2;ratioP2
13279;SDS011;6708;49.814;8.652;2024-01-11T00:01:47;26.07;;;14.67;;
13279;SDS011;6708;49.814;8.652;2024-01-11T00:04:16;21.83;;;14.87;;
13279;SDS011;6708;49.814;8.652;2024-01-11T00:06:44;27.23;;;14.50;;
13279;SDS011;6708;49.814;8.652;2024-01-11T00:09:13;28.33;;;15.67;;
13279;SDS011;6708;49.814;8.652;2024-01-11T00:11:41;23.63;;;14.23;;
13279;SDS011;6708;49.814;8.652;2024-01-11T00:14:10;21.23;;;14.23;;
13279;SDS011;6708;49.814;8.652;2024-01-11T00:16:38;26.50;;;15.13;;
13279;SDS011;6708;49.814;8.652;2024-01-11T00:19:09;29.63;;;15.93;;
13279;SDS011;6708;49.814;8.652;2024-01-11T00:21:38;24.37;;;14.57;;
13279;SDS011;6708;49.814;8.652;2024-01-11T00:24:06;25.63;;;14.33;;
13279;SDS011;6708;49.814;8.652;2024-01-11T00:26:34;24.53;;;15.70;;
13279;SDS011;6708;49.814;8.652;2024-01-11T00:29:03;20.30;;;14.60;;
13279;SDS011;6708;49.814;8.652;2024-01-11T00:31:32;23.87;;;15.70;;
13279;SDS011;6708;49.814;8.652;2024-01-11T00:34:00;25.33;;;15.93;;
13279;SDS011;6708;49.814;8.652;2024-01-11T00:36:31;32.70;;;17.23;;
13279;SDS011;6708;49.814;8.652;2024-01-11T00:39:02;29.00;;;16.87;;
13279;SDS011;6708;49.814;8.652;2024-01-11T00:41:30;28.47;;;16.73;;
13279;SDS011;6708;49.814;8.652;2024-01-11T00:43:58;26.20;;;15.23;;
13279;SDS011;6708;49.814;8.652;2024-01-11T00:46:27;22.03;;;15.87;;
13279;SDS011;6708;49.814;8.652;2024-01-11T00:48:55;23.90;;;15.97;;
13279;SDS011;6708;49.814;8.652;2024-01-11T00:51:24;28.00;;;17.87;;
13279;SDS011;6708;49.814;8.652;2024-01-11T00:53:55;24.23;;;16.20;;
13279;SDS011;6708;49.814;8.652;2024-01-11T00:56:23;31.80;;;16.90;;
13279;SDS011;6708;49.814;8.652;2024-01-11T00:58:52;24.73;;;16.50;;
13279;SDS011;6708;49.814;8.652;2024-01-11T01:01:20;30.33;;;17.00;;
13279;SDS011;6708;49.814;8.652;2024-01-11T01:03:49;27.20;;;17.77;;
13279;SDS011;6708;49.814;8.652;2024-01-11T01:06:17;38.73;;;16.70;;
13279;SDS011;6708;49.814;8.652;2024-01-11T01:08:45;28.83;;;17.57;;
13279;SDS011;6708;49.814;8.652;2024-01-11T01:11:16;30.33;;;16.90;;
13279;SDS011;6708;49.814;8.652;2024-01-11T01:13:45;30.00;;;15.70;;
13279;SDS011;6708;49.814;8.652;2024-01-11T01:16:13;25.10;;;16.43;;
13279;SDS011;6708;49.814;8.652;2024-01-11T01:18:43;26.60;;;16.40;;
13279;SDS011;6708;49.814;8.652;2024-01-11T01:21:11;28.00;;;18.63;;
13279;SDS011;6708;49.814;8.652;2024-01-11T01:23:39;22.13;;;14.50;;
13279;SDS011;6708;49.814;8.652;2024-01-11T01:26:08;27.93;;;16.50;;
13279;SDS011;6708;49.814;8.652;2024-01-11T01:28:39;30.60;;;16.60;;
13279;SDS011;6708;49.814;8.652;2024-01-11T01:31:07;24.43;;;16.10;;
13279;SDS011;6708;49.814;8.652;2024-01-11T01:33:36;30.73;;;17.50;;
13279;SDS011;6708;49.814;8.652;2024-01-11T01:36:07;28.43;;;15.83;;
13279;SDS011;6708;49.814;8.652;2024-01-11T01:38:36;29.80;;;17.67;;
13279;SDS011;6708;49.814;8.652;2024-01-11T01:41:04;30.83;;;17.03;;
13279;SDS011;6708;49.814;8.652;2024-01-11T01:43:33;25.17;;;16.70;;
13279;SDS011;6708;49.814;8.652;2024-01-11T01:46:03;23.17;;;15.13;;
13279;SDS011;6708;49.814;8.652;2024-01-11T01:48:33;25.93;;;16.70;;
13279;SDS011;6708;49.814;8.652;2024-01-11T01:51:02;30.23;;;16.67;;
13279;SDS011;6708;49.814;8.652;2024-01-11T01:53:31;28.30;;;15.77;;
13279;SDS011;6708;49.814;8.652;2024-01-11T01:55:59;21.60;;;15.40;;
13279;SDS011;6708;49.814;8.652;2024-01-11T01:58:28;26.03;;;16.47;;
13279;SDS011;6708;49.814;8.652;2024-01-11T02:00:56;29.40;;;17.60;;
13279;SDS011;6708;49.814;8.652;2024-01-11T02:03:28;24.83;;;15.43;;
13279;SDS011;6708;49.814;8.652;2024-01-11T02:05:56;26.23;;;17.43;;
13279;SDS011;6708;49.814;8.652;2024-01-11T02:08:25;26.27;;;15.97;;
13279;SDS011;6708;49.814;8.652;2024-01-11T02:10:53;21.60;;;15.40;;
13279;SDS011;6708;49.814;8.652;2024-01-11T02:13:22;25.63;;;17.03;;
13279;SDS011;6708;49.814;8.652;2024-01-11T02:15:50;27.97;;;16.80;;
13279;SDS011;6708;49.814;8.652;2024-01-11T02:18:19;30.43;;;18.03;;
13279;SDS011;6708;49.814;8.652;2024-01-11T02:20:50;23.37;;;16.23;;
13279;SDS011;6708;49.814;8.652;2024-01-11T02:23:19;27.77;;;15.97;;
13279;SDS011;6708;49.814;8.652;2024-01-11T02:25:52;25.43;;;16.33;;
13279;SDS011;6708;49.814;8.652;2024-01-11T02:28:20;24.77;;;15.87;;
13279;SDS011;6708;49.814;8.652;2024-01-11T02:30:48;26.80;;;17.07;;
13279;SDS011;6708;49.814;8.652;2024-01-11T02:33:17;30.87;;;18.30;;
13279;SDS011;6708;49.814;8.652;2024-01-11T02:35:45;24.20;;;16.40;;
13279;SDS011;6708;49.814;8.652;2024-01-11T02:38:13;26.40;;;15.67;;
13279;SDS011;6708;49.814;8.652;2024-01-11T02:40:42;26.43;;;15.97;;
13279;SDS011;6708;49.814;8.652;2024-01-11T02:43:16;31.60;;;16.20;;
13279;SDS011;6708;49.814;8.652;2024-01-11T02:45:44;29.00;;;16.37;;
13279;SDS011;6708;49.814;8.652;2024-01-11T02:48:12;23.67;;;13.60;;
13279;SDS011;6708;49.814;8.652;2024-01-11T02:50:41;26.70;;;14.73;;
13279;SDS011;6708;49.814;8.652;2024-01-11T02:53:09;26.30;;;15.93;;
13279;SDS011;6708;49.814;8.652;2024-01-11T02:55:37;26.50;;;16.13;;
13279;SDS011;6708;49.814;8.652;2024-01-11T02:58:06;21.70;;;14.53;;
13279;SDS011;6708;49.814;8.652;2024-01-11T03:00:37;25.33;;;16.40;;
13279;SDS011;6708;49.814;8.652;2024-01-11T03:03:05;23.47;;;14.37;;
13279;SDS011;6708;49.814;8.652;2024-01-11T03:05:34;22.43;;;15.40;;
13279;SDS011;6708;49.814;8.652;2024-01-11T03:08:02;23.00;;;15.77;;
13279;SDS011;6708;49.814;8.652;2024-01-11T03:10:32;24.63;;;16.40;;
13279;SDS011;6708;49.814;8.652;2024-01-11T03:13:00;25.83;;;16.17;;
13279;SDS011;6708;49.814;8.652;2024-01-11T03:15:28;24.43;;;16.93;;
13279;SDS011;6708;49.814;8.652;2024-01-11T03:17:59;24.93;;;17.03;;
13279;SDS011;6708;49.814;8.652;2024-01-11T03:20:27;23.87;;;15.90;;
13279;SDS011;6708;49.814;8.652;2024-01-11T03:22:56;29.30;;;16.60;;
13279;SDS011;6708;49.814;8.652;2024-01-11T03:25:24;26.37;;;15.67;;
13279;SDS011;6708;49.814;8.652;2024-01-11T03:27:53;24.37;;;15.60;;
13279;SDS011;6708;49.814;8.652;2024-01-11T03:30:21;27.87;;;16.13;;
13279;SDS011;6708;49.814;8.652;2024-01-11T03:32:50;24.13;;;15.40;;
13279;SDS011;6708;49.814;8.652;2024-01-11T03:35:21;29.93;;;16.13;;
13279;SDS011;6708;49.814;8.652;2024-01-11T03:37:49;23.57;;;15.67;;
13279;SDS011;6708;49.814;8.652;2024-01-11T03:40:17;25.93;;;16.17;;
13279;SDS011;6708;49.814;8.652;2024-01-11T03:42:46;25.67;;;17.60;;
13279;SDS011;6708;49.814;8.652;2024-01-11T03:45:17;35.87;;;17.97;;
13279;SDS011;6708;49.814;8.652;2024-01-11T03:47:46;24.10;;;16.93;;
13279;SDS011;6708;49.814;8.652;2024-01-11T03:50:14;25.93;;;16.63;;
13279;SDS011;6708;49.814;8.652;2024-01-11T03:52:46;27.67;;;17.17;;
13279;SDS011;6708;49.814;8.652;2024-01-11T03:55:15;25.27;;;15.17;;
13279;SDS011;6708;49.814;8.652;2024-01-11T03:57:43;27.53;;;13.77;;
13279;SDS011;6708;49.814;8.652;2024-01-11T04:00:12;35.57;;;17.37;;
13279;SDS011;6708;49.814;8.652;2024-01-11T04:02:44;22.03;;;15.90;;
13279;SDS011;6708;49.814;8.652;2024-01-11T04:05:12;32.47;;;16.73;;
13279;SDS011;6708;49.814;8.652;2024-01-11T04:07:41;29.97;;;16.40;;
13279;SDS011;6708;49.814;8.652;2024-01-11T04:10:12;24.90;;;17.43;;
13279;SDS011;6708;49.814;8.652;2024-01-11T04:12:40;28.43;;;16.47;;
13279;SDS011;6708;49.814;8.652;2024-01-11T04:15:11;24.13;;;15.33;;
13279;SDS011;6708;49.814;8.652;2024-01-11T04:17:39;25.93;;;16.80;;
13279;SDS011;6708;49.814;8.652;2024-01-11T04:20:08;27.33;;;16.80;;
13279;SDS011;6708;49.814;8.652;2024-01-11T04:22:37;25.03;;;16.07;;
13279;SDS011;6708;49.814;8.652;2024-01-11T04:25:06;22.63;;;15.70;;
13279;SDS011;6708;49.814;8.652;2024-01-11T04:27:38;24.87;;;14.80;;
13279;SDS011;6708;49.814;8.652;2024-01-11T04:30:07;26.43;;;16.77;;
13279;SDS011;6708;49.814;8.652;2024-01-11T04:32:35;26.63;;;16.93;;
13279;SDS011;6708;49.814;8.652;2024-01-11T04:35:04;24.70;;;16.83;;
13279;SDS011;6708;49.814;8.652;2024-01-11T04:37:33;28.43;;;18.60;;
13279;SDS011;6708;49.814;8.652;2024-01-11T04:40:02;29.10;;;17.33;;
13279;SDS011;6708;49.814;8.652;2024-01-11T04:42:32;24.77;;;17.37;;
13279;SDS011;6708;49.814;8.652;2024-01-11T04:45:03;24.53;;;15.87;;
13279;SDS011;6708;49.814;8.652;2024-01-11T04:47:32;30.80;;;17.33;;
13279;SDS011;6708;49.814;8.652;2024-01-11T04:50:00;27.97;;;17.17;;
13279;SDS011;6708;49.814;8.652;2024-01-11T04:52:29;30.20;;;18.37;;
13279;SDS011;6708;49.814;8.652;2024-01-11T04:54:57;34.00;;;19.27;;
13279;SDS011;6708;49.814;8.652;2024-01-11T04:57:25;31.27;;;19.53;;
13279;SDS011;6708;49.814;8.652;2024-01-11T04:59:54;32.87;;;18.63;;
13279;SDS011;6708;49.814;8.652;2024-01-11T05:02:25;27.30;;;17.57;;
13279;SDS011;6708;49.814;8.652;2024-01-11T05:04:53;30.67;;;18.47;;
13279;SDS011;6708;49.814;8.652;2024-01-11T05:07:21;28.80;;;17.33;;
13279;SDS011;6708;49.814;8.652;2024-01-11T05:09:50;28.03;;;17.50;;
13279;SDS011;6708;49.814;8.652;2024-01-11T05:12:18;26.90;;;18.07;;
13279;SDS011;6708;49.814;8.652;2024-01-11T05:14:46;26.77;;;16.60;;
13279;SDS011;6708;49.814;8.652;2024-01-11T05:17:15;29.77;;;17.63;;
13279;SDS011;6708;49.814;8.652;2024-01-11T05:19:46;28.50;;;17.10;;
13279;SDS011;6708;49.814;8.652;2024-01-11T05:22:14;36.73;;;19.63;;
13279;SDS011;6708;49.814;8.652;2024-01-11T05:24:43;29.17;;;18.90;;
13279;SDS011;6708;49.814;8.652;2024-01-11T05:27:11;29.20;;;18.93;;
13279;SDS011;6708;49.814;8.652;2024-01-11T05:29:39;30.57;;;17.97;;
13279;SDS011;6708;49.814;8.652;2024-01-11T05:32:08;35.90;;;19.60;;
13279;SDS011;6708;49.814;8.652;2024-01-11T05:34:36;29.17;;;17.53;;
13279;SDS011;6708;49.814;8.652;2024-01-11T05:37:07;30.70;;;18.27;;
13279;SDS011;6708;49.814;8.652;2024-01-11T05:39:35;31.07;;;18.17;;
13279;SDS011;6708;49.814;8.652;2024-01-11T05:42:04;34.00;;;18.67;;
13279;SDS011;6708;49.814;8.652;2024-01-11T05:44:33;25.03;;;16.70;;
13279;SDS011;6708;49.814;8.652;2024-01-11T05:47:01;29.53;;;17.80;;
13279;SDS011;6708;49.814;8.652;2024-01-11T05:49:30;34.53;;;20.30;;
13279;SDS011;6708;49.814;8.652;2024-01-11T05:51:58;32.57;;;19.13;;
13279;SDS011;6708;49.814;8.652;2024-01-11T05:54:30;30.13;;;17.87;;
13279;SDS011;6708;49.814;8.652;2024-01-11T05:56:58;30.53;;;18.53;;
13279;SDS011;6708;49.814;8.652;2024-01-11T05:59:26;34.03;;;17.20;;
13279;SDS011;6708;49.814;8.652;2024-01-11T06:01:55;32.23;;;17.77;;
13279;SDS011;6708;49.814;8.652;2024-01-11T06:04:25;29.53;;;18.37;;
13279;SDS011;6708;49.814;8.652;2024-01-11T06:06:53;37.87;;;19.13;;
13279;SDS011;6708;49.814;8.652;2024-01-11T06:09:22;30.63;;;19.53;;
13279;SDS011;6708;49.814;8.652;2024-01-11T06:11:53;30.37;;;17.90;;
13279;SDS011;6708;49.814;8.652;2024-01-11T06:14:21;35.33;;;18.87;;
13279;SDS011;6708;49.814;8.652;2024-01-11T06:16:49;34.63;;;19.43;;
13279;SDS011;6708;49.814;8.652;2024-01-11T06:19:18;35.43;;;18.43;;
13279;SDS011;6708;49.814;8.652;2024-01-11T06:21:46;26.93;;;18.83;;
13279;SDS011;6708;49.814;8.652;2024-01-11T06:24:15;36.23;;;18.73;;
13279;SDS011;6708;49.814;8.652;2024-01-11T06:26:40;30.37;;;17.57;;
13279;SDS011;6708;49.814;8.652;2024-01-11T06:29:11;34.10;;;19.30;;
13279;SDS011;6708;49.814;8.652;2024-01-11T06:31:40;29.37;;;18.27;;
13279;SDS011;6708;49.814;8.652;2024-01-11T06:34:08;39.10;;;19.63;;
13279;SDS011;6708;49.814;8.652;2024-01-11T06:36:36;31.53;;;18.27;;
13279;SDS011;6708;49.814;8.652;2024-01-11T06:39:05;32.70;;;16.93;;
13279;SDS011;6708;49.814;8.652;2024-01-11T06:41:33;29.90;;;19.13;;
13279;SDS011;6708;49.814;8.652;2024-01-11T06:44:02;29.37;;;18.00;;
13279;SDS011;6708;49.814;8.652;2024-01-11T06:46:33;29.53;;;18.67;;
13279;SDS011;6708;49.814;8.652;2024-01-11T06:49:04;29.60;;;16.87;;
13279;SDS011;6708;49.814;8.652;2024-01-11T06:51:32;25.67;;;17.10;;
13279;SDS011;6708;49.814;8.652;2024-01-11T06:54:01;29.67;;;17.80;;
13279;SDS011;6708;49.814;8.652;2024-01-11T06:56:29;31.97;;;19.20;;
13279;SDS011;6708;49.814;8.652;2024-01-11T06:58:57;32.40;;;16.73;;
13279;SDS011;6708;49.814;8.652;2024-01-11T07:01:26;26.57;;;17.20;;
13279;SDS011;6708;49.814;8.652;2024-01-11T07:03:57;27.10;;;13.73;;
13279;SDS011;6708;49.814;8.652;2024-01-11T07:06:25;33.70;;;17.97;;
13279;SDS011;6708;49.814;8.652;2024-01-11T07:08:54;30.37;;;17.83;;
13279;SDS011;6708;49.814;8.652;2024-01-11T07:11:23;28.80;;;17.17;;
13279;SDS011;6708;49.814;8.652;2024-01-11T07:13:51;28.10;;;16.37;;
13279;SDS011;6708;49.814;8.652;2024-01-11T07:16:20;25.50;;;16.10;;
13279;SDS011;6708;49.814;8.652;2024-01-11T07:18:49;26.33;;;15.97;;
13279;SDS011;6708;49.814;8.652;2024-01-11T07:21:22;24.77;;;15.17;;
13279;SDS011;6708;49.814;8.652;2024-01-11T07:23:56;33.77;;;19.03;;
13279;SDS011;6708;49.814;8.652;2024-01-11T07:26:25;29.83;;;17.03;;
13279;SDS011;6708;49.814;8.652;2024-01-11T07:28:53;36.80;;;18.20;;
13279;SDS011;6708;49.814;8.652;2024-01-11T07:31:22;25.57;;;17.43;;
13279;SDS011;6708;49.814;8.652;2024-01-11T07:33:51;28.33;;;17.70;;
13279;SDS011;6708;49.814;8.652;2024-01-11T07:36:22;28.70;;;17.60;;
13279;SDS011;6708;49.814;8.652;2024-01-11T07:38:50;28.80;;;18.77;;
13279;SDS011;6708;49.814;8.652;2024-01-11T07:41:18;31.43;;;17.67;;
13279;SDS011;6708;49.814;8.652;2024-01-11T07:43:47;27.77;;;17.47;;
13279;SDS011;6708;49.814;8.652;2024-01-11T07:46:15;26.73;;;16.60;;
13279;SDS011;6708;49.814;8.652;2024-01-11T07:48:43;27.13;;;16.60;;
13279;SDS011;6708;49.814;8.652;2024-01-11T07:51:12;28.27;;;15.70;;
13279;SDS011;6708;49.814;8.652;2024-01-11T07:53:43;32.53;;;18.23;;
13279;SDS011;6708;49.814;8.652;2024-01-11T07:56:11;27.07;;;17.40;;
13279;SDS011;6708;49.814;8.652;2024-01-11T07:58:40;29.53;;;18.23;;
13279;SDS011;6708;49.814;8.652;2024-01-11T08:01:08;28.33;;;16.37;;
13279;SDS011;6708;49.814;8.652;2024-01-11T08:03:37;30.57;;;18.43;;
13279;SDS011;6708;49.814;8.652;2024-01-11T08:06:07;30.57;;;17.00;;
13279;SDS011;6708;49.814;8.652;2024-01-11T08:08:35;31.23;;;18.93;;
13279;SDS011;6708;49.814;8.652;2024-01-11T08:11:07;32.67;;;17.97;;
13279;SDS011;6708;49.814;8.652;2024-01-11T08:13:35;36.50;;;19.30;;
13279;SDS011;6708;49.814;8.652;2024-01-11T08:16:04;31.77;;;17.63;;
13279;SDS011;6708;49.814;8.652;2024-01-11T08:18:34;22.83;;;14.60;;
13279;SDS011;6708;49.814;8.652;2024-01-11T08:21:03;33.13;;;18.23;;
13279;SDS011;6708;49.814;8.652;2024-01-11T08:23:34;35.20;;;19.13;;
13279;SDS011;6708;49.814;8.652;2024-01-11T08:26:07;31.23;;;17.43;;
13279;SDS011;6708;49.814;8.652;2024-01-11T08:28:35;26.20;;;17.57;;
13279;SDS011;6708;49.814;8.652;2024-01-11T08:31:04;31.40;;;17.93;;
13279;SDS011;6708;49.814;8.652;2024-01-11T08:33:32;32.87;;;19.63;;
13279;SDS011;6708;49.814;8.652;2024-01-11T08:36:02;32.00;;;19.13;;
13279;SDS011;6708;49.814;8.652;2024-01-11T08:38:31;25.10;;;16.80;;
13279;SDS011;6708;49.814;8.652;2024-01-11T08:41:00;32.83;;;18.57;;
13279;SDS011;6708;49.814;8.652;2024-01-11T08:43:31;30.73;;;19.50;;
13279;SDS011;6708;49.814;8.652;2024-01-11T08:46:00;32.03;;;18.10;;
13279;SDS011;6708;49.814;8.652;2024-01-11T08:48:29;31.23;;;20.13;;
13279;SDS011;6708;49.814;8.652;2024-01-11T08:50:57;39.83;;;18.57;;
13279;SDS011;6708;49.814;8.652;2024-01-11T08:53:25;32.60;;;19.97;;
13279;SDS011;6708;49.814;8.652;2024-01-11T08:55:54;33.73;;;19.13;;
13279;SDS011;6708;49.814;8.652;2024-01-11T08:58:22;36.97;;;20.00;;
13279;SDS011;6708;49.814;8.652;2024-01-11T09:00:53;31.97;;;18.50;;
13279;SDS011;6708;49.814;8.652;2024-01-11T09:03:21;35.93;;;22.07;;
13279;SDS011;6708;49.814;8.652;2024-01-11T09:05:50;37.03;;;20.60;;
13279;SDS011;6708;49.814;8.652;2024-01-11T09:08:22;35.23;;;21.77;;
13279;SDS011;6708;49.814;8.652;2024-01-11T09:10:50;32.43;;;21.50;;
13279;SDS011;6708;49.814;8.652;2024-01-11T09:13:19;36.30;;;21.17;;
13279;SDS011;6708;49.814;8.652;2024-01-11T09:15:47;33.83;;;20.77;;
13279;SDS011;6708;49.814;8.652;2024-01-11T09:18:18;32.43;;;20.87;;
13279;SDS011;6708;49.814;8.652;2024-01-11T09:20:47;32.07;;;20.73;;
13279;SDS011;6708;49.814;8.652;2024-01-11T09:23:16;33.73;;;20.70;;
13279;SDS011;6708;49.814;8.652;2024-01-11T09:25:44;38.07;;;21.37;;
13279;SDS011;6708;49.814;8.652;2024-01-11T09:28:13;34.67;;;21.87;;
13279;SDS011;6708;49.814;8.652;2024-01-11T09:30:41;34.40;;;21.53;;
13279;SDS011;6708;49.814;8.652;2024-01-11T09:33:10;34.73;;;21.60;;
13279;SDS011;6708;49.814;8.652;2024-01-11T09:35:41;36.33;;;22.43;;
13279;SDS011;6708;49.814;8.652;2024-01-11T09:38:09;39.00;;;22.27;;
13279;SDS011;6708;49.814;8.652;2024-01-11T09:40:37;37.53;;;21.83;;
13279;SDS011;6708;49.814;8.652;2024-01-11T09:43:06;32.30;;;22.63;;
13279;SDS011;6708;49.814;8.652;2024-01-11T09:45:35;33.30;;;22.03;;
13279;SDS011;6708;49.814;8.652;2024-01-11T09:48:05;35.07;;;21.40;;
13279;SDS011;6708;49.814;8.652;2024-01-11T09:50:34;42.17;;;21.33;;
13279;SDS011;6708;49.814;8.652;2024-01-11T09:53:06;37.53;;;22.77;;
13279;SDS011;6708;49.814;8.652;2024-01-11T09:55:35;31.50;;;20.60;;
13279;SDS011;6708;49.814;8.652;2024-01-11T09:58:04;33.77;;;21.70;;
13279;SDS011;6708;49.814;8.652;2024-01-11T10:00:33;32.93;;;21.50;;
13279;SDS011;6708;49.814;8.652;2024-01-11T10:03:02;31.10;;;21.23;;
13279;SDS011;6708;49.814;8.652;2024-01-11T10:05:29;38.00;;;21.77;;
13279;SDS011;6708;49.814;8.652;2024-01-11T10:07:57;38.10;;;22.47;;
13279;SDS011;6708;49.814;8.652;2024-01-11T10:10:28;31.80;;;21.60;;
13279;SDS011;6708;49.814;8.652;2024-01-11T10:12:57;38.40;;;22.67;;
13279;SDS011;6708;49.814;8.652;2024-01-11T10:15:26;36.73;;;23.03;;
13279;SDS011;6708;49.814;8.652;2024-01-11T10:17:54;36.00;;;21.63;;
13279;SDS011;6708;49.814;8.652;2024-01-11T10:20:23;34.00;;;21.60;;
13279;SDS011;6708;49.814;8.652;2024-01-11T10:22:52;37.53;;;22.50;;
13279;SDS011;6708;49.814;8.652;2024-01-11T10:25:21;40.43;;;22.33;;
13279;SDS011;6708;49.814;8.652;2024-01-11T10:27:52;36.10;;;22.97;;
13279;SDS011;6708;49.814;8.652;2024-01-11T10:30:21;35.83;;;22.33;;
13279;SDS011;6708;49.814;8.652;2024-01-11T10:32:51;38.77;;;23.70;;
13279;SDS011;6708;49.814;8.652;2024-01-11T10:35:20;33.37;;;21.73;;
13279;SDS011;6708;49.814;8.652;2024-01-11T10:37:50;38.90;;;21.43;;
13279;SDS011;6708;49.814;8.652;2024-01-11T10:40:18;38.23;;;23.20;;
13279;SDS011;6708;49.814;8.652;2024-01-11T10:42:53;38.27;;;23.20;;
13279;SDS011;6708;49.814;8.652;2024-01-11T10:45:21;40.67;;;22.57;;
13279;SDS011;6708;49.814;8.652;2024-01-11T10:47:50;35.53;;;20.83;;
13279;SDS011;6708;49.814;8.652;2024-01-11T10:50:20;36.60;;;22.53;;
13279;SDS011;6708;49.814;8.652;2024-01-11T10:52:54;40.70;;;21.90;;
13279;SDS011;6708;49.814;8.652;2024-01-11T10:55:28;36.43;;;23.03;;
13279;SDS011;6708;49.814;8.652;2024-01-11T10:58:03;34.03;;;22.87;;
13279;SDS011;6708;49.814;8.652;2024-01-11T11:00:31;32.40;;;21.80;;
13279;SDS011;6708;49.814;8.652;2024-01-11T11:03:03;36.90;;;22.43;;
13279;SDS011;6708;49.814;8.652;2024-01-11T11:05:34;33.77;;;22.53;;
13279;SDS011;6708;49.814;8.652;2024-01-11T11:08:03;39.63;;;22.77;;
13279;SDS011;6708;49.814;8.652;2024-01-11T11:10:33;41.17;;;22.07;;
13279;SDS011;6708;49.814;8.652;2024-01-11T11:13:04;37.00;;;22.00;;
13279;SDS011;6708;49.814;8.652;2024-01-11T11:15:33;35.20;;;22.70;;
13279;SDS011;6708;49.814;8.652;2024-01-11T11:18:02;37.73;;;23.33;;
13279;SDS011;6708;49.814;8.652;2024-01-11T11:20:31;32.13;;;23.10;;
13279;SDS011;6708;49.814;8.652;2024-01-11T11:23:03;32.87;;;21.60;;
13279;SDS011;6708;49.814;8.652;2024-01-11T11:25:32;30.23;;;20.13;;
13279;SDS011;6708;49.814;8.652;2024-01-11T11:28:00;31.97;;;20.60;;
13279;SDS011;6708;49.814;8.652;2024-01-11T11:30:32;29.73;;;21.37;;
13279;SDS011;6708;49.814;8.652;2024-01-11T11:33:07;37.67;;;22.17;;
13279;SDS011;6708;49.814;8.652;2024-01-11T11:35:39;30.07;;;20.30;;
13279;SDS011;6708;49.814;8.652;2024-01-11T11:38:08;32.30;;;21.00;;
13279;SDS011;6708;49.814;8.652;2024-01-11T11:40:37;38.60;;;21.87;;
13279;SDS011;6708;49.814;8.652;2024-01-11T11:43:08;29.70;;;20.73;;
13279;SDS011;6708;49.814;8.652;2024-01-11T11:45:39;31.33;;;19.27;;
13279;SDS011;6708;49.814;8.652;2024-01-11T11:51:06;32.47;;;19.83;;
13279;SDS011;6708;49.814;8.652;2024-01-11T11:53:36;28.30;;;19.40;;
13279;SDS011;6708;49.814;8.652;2024-01-11T11:56:05;29.07;;;20.27;;
13279;SDS011;6708;49.814;8.652;2024-01-11T11:58:34;190.60;;;31.33;;
13279;SDS011;6708;49.814;8.652;2024-01-11T12:01:06;37.43;;;20.50;;
13279;SDS011;6708;49.814;8.652;2024-01-11T12:03:35;36.50;;;19.63;;
13279;SDS011;6708;49.814;8.652;2024-01-11T12:06:05;31.07;;;19.87;;
13279;SDS011;6708;49.814;8.652;2024-01-11T12:08:35;33.77;;;20.90;;
13279;SDS011;6708;49.814;8.652;2024-01-11T12:11:05;34.07;;;20.57;;
13279;SDS011;6708;49.814;8.652;2024-01-11T12:13:34;39.20;;;20.90;;
13279;SDS011;6708;49.814;8.652;2024-01-11T12:16:02;36.17;;;19.67;;
13279;SDS011;6708;49.814;8.652;2024-01-11T12:18:34;33.83;;;20.57;;
13279;SDS011;6708;49.814;8.652;2024-01-11T12:21:02;25.20;;;18.53;;
13279;SDS011;6708;49.814;8.652;2024-01-11T12:23:31;28.30;;;19.27;;
13279;SDS011;6708;49.814;8.652;2024-01-11T12:26:00;33.20;;;19.03;;
13279;SDS011;6708;49.814;8.652;2024-01-11T12:28:30;29.63;;;18.83;;
13279;SDS011;6708;49.814;8.652;2024-01-11T12:30:59;27.23;;;19.07;;
13279;SDS011;6708;49.814;8.652;2024-01-11T12:33:28;25.10;;;17.63;;
13279;SDS011;6708;49.814;8.652;2024-01-11T12:36:02;25.77;;;17.73;;
13279;SDS011;6708;49.814;8.652;2024-01-11T12:38:32;25.60;;;17.03;;
13279;SDS011;6708;49.814;8.652;2024-01-11T12:41:01;30.47;;;17.53;;
13279;SDS011;6708;49.814;8.652;2024-01-11T12:43:30;30.77;;;18.70;;
13279;SDS011;6708;49.814;8.652;2024-01-11T12:45:59;30.20;;;18.30;;
13279;SDS011;6708;49.814;8.652;2024-01-11T12:48:27;26.07;;;17.43;;
13279;SDS011;6708;49.814;8.652;2024-01-11T12:50:56;27.40;;;18.57;;
13279;SDS011;6708;49.814;8.652;2024-01-11T12:53:27;27.30;;;18.20;;
13279;SDS011;6708;49.814;8.652;2024-01-11T12:56:02;28.57;;;18.70;;
13279;SDS011;6708;49.814;8.652;2024-01-11T12:58:33;30.83;;;17.93;;
13279;SDS011;6708;49.814;8.652;2024-01-11T13:01:03;27.30;;;17.93;;
13279;SDS011;6708;49.814;8.652;2024-01-11T13:03:32;25.40;;;17.10;;
13279;SDS011;6708;49.814;8.652;2024-01-11T13:06:01;26.87;;;18.53;;
13279;SDS011;6708;49.814;8.652;2024-01-11T13:08:32;25.80;;;17.40;;
13279;SDS011;6708;49.814;8.652;2024-01-11T13:11:02;29.50;;;18.83;;
13279;SDS011;6708;49.814;8.652;2024-01-11T13:13:32;26.50;;;18.10;;
13279;SDS011;6708;49.814;8.652;2024-01-11T13:16:00;31.60;;;18.43;;
13279;SDS011;6708;49.814;8.652;2024-01-11T13:18:31;24.50;;;17.00;;
13279;SDS011;6708;49.814;8.652;2024-01-11T13:20:59;26.90;;;16.60;;
13279;SDS011;6708;49.814;8.652;2024-01-11T13:23:28;28.47;;;16.97;;
13279;SDS011;6708;49.814;8.652;2024-01-11T13:25:59;26.90;;;16.93;;
13279;SDS011;6708;49.814;8.652;2024-01-11T13:28:29;30.87;;;17.10;;
13279;SDS011;6708;49.814;8.652;2024-01-11T13:30:58;24.20;;;16.60;;
13279;SDS011;6708;49.814;8.652;2024-01-11T13:33:27;24.10;;;16.07;;
13279;SDS011;6708;49.814;8.652;2024-01-11T13:35:56;24.90;;;17.40;;
13279;SDS011;6708;49.814;8.652;2024-01-11T13:38:24;27.10;;;17.40;;
13279;SDS011;6708;49.814;8.652;2024-01-11T13:40:53;26.27;;;16.83;;
13279;SDS011;6708;49.814;8.652;2024-01-11T13:43:24;29.30;;;17.77;;
13279;SDS011;6708;49.814;8.652;2024-01-11T13:45:52;27.40;;;18.37;;
13279;SDS011;6708;49.814;8.652;2024-01-11T13:48:21;28.03;;;17.67;;
13279;SDS011;6708;49.814;8.652;2024-01-11T13:50:50;32.00;;;20.10;;
13279;SDS011;6708;49.814;8.652;2024-01-11T13:53:18;31.40;;;21.27;;
13279;SDS011;6708;49.814;8.652;2024-01-11T13:55:47;34.80;;;21.50;;
13279;SDS011;6708;49.814;8.652;2024-01-11T13:58:15;33.40;;;20.13;;
13279;SDS011;6708;49.814;8.652;2024-01-11T14:00:48;33.77;;;21.80;;
13279;SDS011;6708;49.814;8.652;2024-01-11T14:03:17;33.57;;;21.63;;
13279;SDS011;6708;49.814;8.652;2024-01-11T14:05:45;33.97;;;22.43;;
13279;SDS011;6708;49.814;8.652;2024-01-11T14:08:13;36.63;;;22.40;;
13279;SDS011;6708;49.814;8.652;2024-01-11T14:10:42;32.60;;;21.37;;
13279;SDS011;6708;49.814;8.652;2024-01-11T14:13:10;39.83;;;22.57;;
13279;SDS011;6708;49.814;8.652;2024-01-11T14:15:39;37.27;;;20.67;;
13279;SDS011;6708;49.814;8.652;2024-01-11T14:18:10;29.43;;;20.97;;
13279;SDS011;6708;49.814;8.652;2024-01-11T14:20:39;31.20;;;20.27;;
13279;SDS011;6708;49.814;8.652;2024-01-11T14:23:07;28.73;;;19.10;;
13279;SDS011;6708;49.814;8.652;2024-01-11T14:25:36;27.63;;;19.37;;
13279;SDS011;6708;49.814;8.652;2024-01-11T14:28:04;27.80;;;17.57;;
13279;SDS011;6708;49.814;8.652;2024-01-11T14:30:33;30.73;;;17.40;;
13279;SDS011;6708;49.814;8.652;2024-01-11T14:33:01;26.13;;;16.17;;
13279;SDS011;6708;49.814;8.652;2024-01-11T14:35:32;30.77;;;17.53;;
13279;SDS011;6708;49.814;8.652;2024-01-11T14:38:01;24.80;;;15.80;;
13279;SDS011;6708;49.814;8.652;2024-01-11T14:40:29;28.37;;;16.10;;
13279;SDS011;6708;49.814;8.652;2024-01-11T14:42:58;25.27;;;16.67;;
13279;SDS011;6708;49.814;8.652;2024-01-11T14:45:26;30.93;;;16.43;;
13279;SDS011;6708;49.814;8.652;2024-01-11T14:47:55;25.33;;;15.77;;